createdAt,value
2018-08-09T00:00:03.334Z,75.74
2018-08-09T00:02:31.862Z,75.88
2018-08-09T00:05:00.407Z,76.02
2018-08-09T00:07:29.066Z,76.39
2018-08-09T00:09:57.792Z,75.80
2018-08-09T00:12:26.422Z,75.75
2018-08-09T00:14:55.015Z,75.84
2018-08-09T00:17:23.626Z,76.26
2018-08-09T00:19:53.044Z,75.90
2018-08-09T00:22:21.664Z,76.06
2018-08-09T00:24:50.314Z,76.40
2018-08-09T00:27:18.999Z,76.13
2018-08-09T00:29:47.588Z,77.18
2018-08-09T00:32:16.209Z,77.21
2018-08-09T00:34:44.997Z,77.65
2018-08-09T00:37:13.642Z,78.04
2018-08-09T00:39:42.220Z,78.19
2018-08-09T00:42:10.900Z,78.66
2018-08-09T00:44:39.522Z,78.52
2018-08-09T00:47:08.098Z,79.29
2018-08-09T00:49:36.757Z,79.99
2018-08-09T00:52:05.507Z,80.03
2018-08-09T00:54:34.132Z,79.88
2018-08-09T00:57:03.369Z,80.25
2018-08-09T00:59:31.978Z,80.68
2018-08-09T01:02:00.646Z,80.85
2018-08-09T01:04:29.384Z,80.54
2018-08-09T01:06:58.578Z,80.44
2018-08-09T01:09:27.775Z,80.66
2018-08-09T01:11:56.359Z,80.68
2018-08-09T01:14:25.134Z,81.25
2018-08-09T01:16:53.832Z,80.83
2018-08-09T01:19:22.568Z,80.80
2018-08-09T01:21:51.178Z,80.92
2018-08-09T01:24:19.890Z,81.57
2018-08-09T01:26:48.606Z,81.12
2018-08-09T01:29:17.210Z,81.11
2018-08-09T01:31:45.844Z,81.62
2018-08-09T01:34:14.509Z,81.35
2018-08-09T01:36:43.091Z,81.52
2018-08-09T01:39:13.086Z,81.19
2018-08-09T01:41:51.607Z,80.86
2018-08-09T01:44:20.165Z,80.92
2018-08-09T01:46:48.809Z,81.17
2018-08-09T01:49:17.565Z,80.94
2018-08-09T01:51:46.114Z,81.25
2018-08-09T01:54:14.760Z,81.58
2018-08-09T01:56:43.342Z,80.98
2018-08-09T01:59:11.983Z,80.90
2018-08-09T02:01:40.558Z,81.23
2018-08-09T02:04:09.704Z,81.05
2018-08-09T02:06:38.242Z,81.56
2018-08-09T02:09:09.199Z,81.56
2018-08-09T02:11:37.772Z,80.99
2018-08-09T02:14:06.890Z,81.83
2018-08-09T02:16:35.691Z,81.70
2018-08-09T02:19:04.279Z,81.59
2018-08-09T02:21:32.915Z,81.61
2018-08-09T02:24:01.494Z,81.74
2018-08-09T02:26:30.101Z,82.06
2018-08-09T02:28:58.630Z,82.25
2018-08-09T02:31:27.292Z,82.23
2018-08-09T02:33:55.922Z,81.91
2018-08-09T02:36:24.452Z,81.42
2018-08-09T02:38:53.026Z,81.63
2018-08-09T02:41:21.675Z,81.54
2018-08-09T02:43:50.289Z,81.56
2018-08-09T02:46:18.995Z,80.72
2018-08-09T02:48:48.294Z,80.90
2018-08-09T02:51:17.288Z,80.52
2018-08-09T02:53:45.811Z,80.64
2018-08-09T02:56:14.363Z,80.18
2018-08-09T02:58:43.138Z,79.38
2018-08-09T03:01:11.837Z,79.43
2018-08-09T03:03:40.509Z,78.33
2018-08-09T03:06:09.180Z,78.15
2018-08-09T03:08:37.691Z,77.51
2018-08-09T03:11:06.872Z,76.25
2018-08-09T03:13:35.598Z,76.53
2018-08-09T03:16:04.142Z,76.42
2018-08-09T03:18:32.779Z,76.27
2018-08-09T03:21:01.381Z,76.15
2018-08-09T03:23:30.095Z,75.77
2018-08-09T03:25:58.880Z,75.58
2018-08-09T03:28:27.566Z,75.33
2018-08-09T03:30:56.163Z,75.40
2018-08-09T03:33:24.794Z,74.59
2018-08-09T03:35:53.633Z,74.71
2018-08-09T03:38:22.130Z,75.03
2018-08-09T03:40:50.893Z,75.20
2018-08-09T03:43:19.454Z,75.22
2018-08-09T03:45:48.079Z,74.41
2018-08-09T03:48:16.998Z,74.07
2018-08-09T03:50:45.684Z,74.37
2018-08-09T03:53:14.279Z,73.38
2018-08-09T03:55:43.063Z,73.50
2018-08-09T03:58:11.860Z,73.62
2018-08-09T04:00:40.375Z,72.84
2018-08-09T04:03:09.011Z,73.26
2018-08-09T04:05:37.629Z,72.62
2018-08-09T04:08:06.271Z,71.20
2018-08-09T04:10:34.910Z,71.75
2018-08-09T04:13:03.519Z,71.19
2018-08-09T04:15:32.107Z,71.51
2018-08-09T04:18:00.700Z,72.21
2018-08-09T04:20:29.440Z,72.20
2018-08-09T04:22:58.029Z,72.07
2018-08-09T04:25:26.674Z,72.18
2018-08-09T04:27:55.269Z,72.42
2018-08-09T04:30:23.943Z,72.44
2018-08-09T04:32:52.618Z,72.20
2018-08-09T04:35:21.192Z,72.02
2018-08-09T04:37:50.398Z,72.02
2018-08-09T04:40:18.926Z,72.04
2018-08-09T04:42:47.613Z,71.74
2018-08-09T04:45:16.263Z,71.63
2018-08-09T04:47:44.983Z,72.21
2018-08-09T04:50:13.567Z,71.88
2018-08-09T04:52:42.174Z,72.06
2018-08-09T04:55:11.470Z,71.61
2018-08-09T04:57:40.124Z,71.64
2018-08-09T05:00:08.927Z,71.85
2018-08-09T05:02:37.486Z,71.34
2018-08-09T05:05:06.174Z,70.53
2018-08-09T05:07:34.711Z,70.14
2018-08-09T05:10:09.371Z,70.06
2018-08-09T05:12:39.195Z,70.41
2018-08-09T05:15:07.998Z,70.05
2018-08-09T05:17:36.721Z,70.40
2018-08-09T05:20:06.452Z,69.56
2018-08-09T05:22:35.224Z,69.10
2018-08-09T05:25:04.072Z,69.29
2018-08-09T05:27:32.595Z,69.04
2018-08-09T05:30:01.547Z,69.02
2018-08-09T05:32:30.178Z,69.59
2018-08-09T05:34:58.755Z,69.18
2018-08-09T05:37:27.493Z,69.24
2018-08-09T05:39:56.897Z,68.99
2018-08-09T05:42:25.481Z,67.85
2018-08-09T05:44:54.064Z,68.74
2018-08-09T05:47:22.695Z,68.03
2018-08-09T05:49:51.229Z,68.68
2018-08-09T05:52:19.917Z,68.34
2018-08-09T05:54:49.642Z,67.42
2018-08-09T05:57:18.964Z,68.04
2018-08-09T05:59:47.571Z,67.90
2018-08-09T06:02:16.129Z,67.31
2018-08-09T06:04:44.879Z,66.96
2018-08-09T06:07:13.562Z,67.12
2018-08-09T06:09:42.392Z,66.98
2018-08-09T06:12:11.035Z,66.71
2018-08-09T06:14:39.548Z,66.52
2018-08-09T06:17:08.120Z,66.30
2018-08-09T06:19:36.734Z,65.95
2018-08-09T06:22:05.498Z,65.68
2018-08-09T06:24:34.734Z,65.54
2018-08-09T06:27:03.592Z,64.78
2018-08-09T06:29:32.167Z,65.43
2018-08-09T06:32:00.842Z,64.76
2018-08-09T06:34:29.502Z,65.61
2018-08-09T06:36:58.186Z,66.03
2018-08-09T06:39:27.086Z,64.69
2018-08-09T06:41:55.872Z,63.25
2018-08-09T06:44:24.517Z,63.71
2018-08-09T06:46:53.106Z,62.83
2018-08-09T06:49:21.726Z,63.98
2018-08-09T06:51:50.230Z,63.03
2018-08-09T06:54:18.991Z,63.24
2018-08-09T06:56:48.599Z,61.97
2018-08-09T06:59:17.285Z,61.68
2018-08-09T07:01:46.116Z,60.55
2018-08-09T07:04:14.658Z,61.08
2018-08-09T07:06:43.292Z,61.04
2018-08-09T07:09:12.487Z,60.36
2018-08-09T07:11:46.323Z,60.43
2018-08-09T07:14:15.031Z,61.58
2018-08-09T07:16:43.643Z,60.68
2018-08-09T07:19:12.338Z,60.81
2018-08-09T07:21:40.982Z,60.11
2018-08-09T07:24:09.499Z,60.95
2018-08-09T07:26:38.147Z,60.72
2018-08-09T07:29:06.775Z,60.63
2018-08-09T07:31:35.312Z,59.49
2018-08-09T07:34:05.531Z,60.25
2018-08-09T07:36:34.370Z,59.37
2018-08-09T07:39:03.168Z,60.49
2018-08-09T07:41:31.791Z,59.66
2018-08-09T07:44:00.585Z,59.90
2018-08-09T07:46:29.910Z,59.68
2018-08-09T07:48:59.182Z,59.76
2018-08-09T07:51:28.437Z,59.10
2018-08-09T07:53:57.167Z,58.81
2018-08-09T07:56:25.751Z,58.32
2018-08-09T07:58:54.510Z,57.06
2018-08-09T08:01:23.122Z,58.45
2018-08-09T08:03:51.782Z,60.08
2018-08-09T08:06:20.331Z,59.10
2018-08-09T08:08:48.959Z,58.92
2018-08-09T08:11:17.573Z,57.13
2018-08-09T08:13:46.241Z,57.86
2018-08-09T08:16:14.808Z,57.96
2018-08-09T08:18:43.509Z,57.86
2018-08-09T08:21:12.582Z,59.35
2018-08-09T08:23:41.226Z,58.37
2018-08-09T08:26:09.928Z,58.09
2018-08-09T08:28:38.584Z,58.48
2018-08-09T08:31:09.735Z,57.24
2018-08-09T08:33:38.313Z,58.12
2018-08-09T08:36:07.707Z,57.92
2018-08-09T08:38:36.438Z,58.09
2018-08-09T08:41:05.114Z,58.44
2018-08-09T08:43:33.822Z,58.64
2018-08-09T08:46:02.529Z,58.93
2018-08-09T08:48:31.215Z,58.94
2018-08-09T08:50:59.746Z,58.37
2018-08-09T08:53:28.758Z,56.54
2018-08-09T08:55:57.334Z,55.59
2018-08-09T08:58:26.053Z,53.90
2018-08-09T09:00:54.966Z,56.02
2018-08-09T09:03:23.740Z,55.97
2018-08-09T09:05:52.362Z,55.17
2018-08-09T09:08:21.635Z,55.04
2018-08-09T09:10:53.706Z,53.35
2018-08-09T09:13:22.862Z,53.67
2018-08-09T09:15:51.610Z,54.54
2018-08-09T09:18:20.253Z,55.56
2018-08-09T09:20:48.938Z,55.71
2018-08-09T09:23:17.932Z,52.39
2018-08-09T09:25:46.515Z,52.47
2018-08-09T09:28:15.196Z,51.27
2018-08-09T09:30:43.730Z,53.46
2018-08-09T09:33:12.267Z,53.99
2018-08-09T09:35:40.879Z,54.38
2018-08-09T09:38:10.656Z,50.50
2018-08-09T09:40:39.903Z,53.17
2018-08-09T09:43:08.645Z,53.72
2018-08-09T09:45:37.395Z,51.18
2018-08-09T09:48:06.529Z,52.75
2018-08-09T09:50:35.260Z,51.37
2018-08-09T09:53:03.830Z,52.67
2018-08-09T09:55:32.446Z,51.50
2018-08-09T09:58:01.020Z,52.65
2018-08-09T10:00:33.819Z,51.96
2018-08-09T10:03:03.187Z,51.85
2018-08-09T10:05:32.231Z,49.21
2018-08-09T10:08:00.751Z,50.11
2018-08-09T10:10:29.889Z,49.33
2018-08-09T10:12:58.598Z,49.29
2018-08-09T10:15:27.285Z,50.88
2018-08-09T10:17:55.967Z,52.42
2018-08-09T10:20:24.615Z,50.15
2018-08-09T10:22:53.237Z,49.06
2018-08-09T10:25:21.882Z,49.14
2018-08-09T10:27:50.439Z,49.08
2018-08-09T10:30:19.093Z,50.01
2018-08-09T10:32:48.406Z,50.93
2018-08-09T10:35:17.190Z,49.48
2018-08-09T10:37:45.860Z,50.94
2018-08-09T10:40:14.631Z,49.30
2018-08-09T10:42:43.340Z,49.58
2018-08-09T10:45:11.918Z,50.18
2018-08-09T10:47:40.543Z,50.17
2018-08-09T10:50:09.185Z,50.59
2018-08-09T10:52:37.769Z,51.42
2018-08-09T10:55:06.994Z,51.64
2018-08-09T10:57:35.637Z,51.13
2018-08-09T11:00:06.227Z,50.53
2018-08-09T11:02:34.804Z,50.92
2018-08-09T11:05:03.445Z,50.38
2018-08-09T11:07:31.976Z,49.00
2018-08-09T11:10:01.231Z,49.27
2018-08-09T11:12:29.809Z,49.25
2018-08-09T11:14:58.447Z,50.06
2018-08-09T11:17:27.799Z,50.17
2018-08-09T11:19:57.094Z,48.76
2018-08-09T11:22:25.677Z,49.16
2018-08-09T11:24:54.365Z,49.50
2018-08-09T11:27:23.151Z,49.88
2018-08-09T11:29:51.945Z,49.28
2018-08-09T11:32:20.591Z,49.32
2018-08-09T11:34:49.135Z,48.51
2018-08-09T11:37:18.301Z,49.68
2018-08-09T11:39:46.992Z,49.19
2018-08-09T11:42:15.719Z,49.77
2018-08-09T11:44:44.357Z,50.26
2018-08-09T11:47:12.972Z,50.09
2018-08-09T11:49:41.630Z,48.93
2018-08-09T11:52:10.259Z,49.85
2018-08-09T11:54:38.996Z,49.84
2018-08-09T11:57:08.108Z,48.64
2018-08-09T11:59:36.782Z,48.70
2018-08-09T12:02:05.665Z,48.18
2018-08-09T12:04:34.315Z,48.75
2018-08-09T12:07:03.179Z,48.04
2018-08-09T12:09:31.814Z,47.92
2018-08-09T12:12:00.441Z,48.14
2018-08-09T12:14:29.093Z,47.63
2018-08-09T12:16:57.792Z,48.43
2018-08-09T12:19:26.464Z,46.43
2018-08-09T12:21:55.251Z,46.27
2018-08-09T12:24:24.250Z,46.26
2018-08-09T12:26:53.120Z,48.08
2018-08-09T12:29:21.767Z,45.28
2018-08-09T12:31:50.505Z,45.54
2018-08-09T12:34:19.087Z,45.93
2018-08-09T12:36:47.734Z,45.33
2018-08-09T12:39:16.356Z,45.60
2018-08-09T12:41:44.992Z,44.33
2018-08-09T12:44:14.250Z,44.26
2018-08-09T12:46:42.886Z,45.13
2018-08-09T12:49:11.711Z,45.12
2018-08-09T12:51:41.051Z,44.83
2018-08-09T12:54:09.705Z,45.18
2018-08-09T12:56:38.381Z,43.66
2018-08-09T12:59:07.010Z,43.63
2018-08-09T13:01:35.755Z,45.66
2018-08-09T13:04:04.437Z,42.77
2018-08-09T13:06:33.079Z,41.11
2018-08-09T13:09:01.809Z,43.26
2018-08-09T13:11:30.615Z,41.65
2018-08-09T13:13:59.692Z,40.69
2018-08-09T13:16:28.667Z,41.60
2018-08-09T13:18:58.187Z,42.54
2018-08-09T13:21:27.414Z,42.49
2018-08-09T13:23:56.134Z,44.21
2018-08-09T13:26:24.737Z,44.22
2018-08-09T13:28:53.389Z,44.59
2018-08-09T13:31:22.849Z,44.35
2018-08-09T13:33:51.543Z,44.44
2018-08-09T13:36:20.173Z,45.20
2018-08-09T13:38:48.796Z,44.97
2018-08-09T13:41:17.430Z,44.57
2018-08-09T13:43:46.227Z,45.22
2018-08-09T13:46:14.852Z,45.15
2018-08-09T13:48:43.435Z,44.96
2018-08-09T13:51:12.792Z,45.19
2018-08-09T13:53:41.342Z,45.53
2018-08-09T13:56:10.057Z,45.27
2018-08-09T13:58:38.789Z,45.39
2018-08-09T14:01:07.988Z,45.36
2018-08-09T14:03:36.575Z,44.98
2018-08-09T14:06:05.297Z,45.36
2018-08-09T14:08:33.940Z,44.38
2018-08-09T14:11:02.626Z,45.38
2018-08-09T14:13:31.384Z,44.85
2018-08-09T14:15:59.997Z,45.44
2018-08-09T14:18:29.399Z,45.16
2018-08-09T14:20:57.982Z,45.04
2018-08-09T14:23:26.600Z,45.12
2018-08-09T14:25:55.353Z,44.46
2018-08-09T14:28:24.038Z,45.11
2018-08-09T14:30:52.825Z,43.89
2018-08-09T14:33:21.511Z,42.76
2018-08-09T14:35:50.302Z,44.05
2018-08-09T14:38:18.928Z,44.26
2018-08-09T14:40:47.976Z,43.59
2018-08-09T14:43:16.539Z,42.46
2018-08-09T14:45:45.487Z,42.95
2018-08-09T14:48:14.075Z,43.29
2018-08-09T14:50:42.685Z,43.08
2018-08-09T14:53:11.291Z,42.17
2018-08-09T14:55:39.885Z,42.20
2018-08-09T14:58:08.469Z,41.52
2018-08-09T15:00:38.002Z,42.30
2018-08-09T15:03:06.826Z,41.20
2018-08-09T15:05:35.464Z,40.40
2018-08-09T15:08:04.165Z,42.12
2018-08-09T15:10:32.918Z,42.07
2018-08-09T15:13:01.550Z,42.35
2018-08-09T15:15:30.283Z,41.37
2018-08-09T15:17:58.934Z,41.64
2018-08-09T15:20:27.615Z,41.67
2018-08-09T15:22:56.260Z,42.04
2018-08-09T15:25:25.540Z,42.15
2018-08-09T15:27:54.229Z,42.15
2018-08-09T15:30:22.985Z,42.67
2018-08-09T15:32:51.802Z,42.15
2018-08-09T15:35:20.423Z,43.00
2018-08-09T15:37:49.131Z,42.12
2018-08-09T15:40:17.805Z,42.19
2018-08-09T15:42:46.441Z,42.32
2018-08-09T15:45:16.218Z,42.32
2018-08-09T15:47:45.129Z,42.72
2018-08-09T15:50:16.575Z,41.63
2018-08-09T15:52:45.330Z,42.03
2018-08-09T15:55:15.147Z,42.98
2018-08-09T15:57:43.827Z,42.73
2018-08-09T16:00:15.583Z,42.97
2018-08-09T16:02:44.433Z,42.76
2018-08-09T16:05:13.108Z,43.30
2018-08-09T16:07:41.979Z,43.07
2018-08-09T16:10:12.871Z,42.04
2018-08-09T16:12:41.825Z,43.37
2018-08-09T16:15:12.708Z,43.09
2018-08-09T16:17:41.963Z,44.25
2018-08-09T16:20:11.876Z,43.88
2018-08-09T16:22:40.913Z,42.38
2018-08-09T16:25:11.718Z,41.53
2018-08-09T16:27:40.389Z,42.50
2018-08-09T16:30:16.611Z,42.64
2018-08-09T16:32:45.132Z,43.07
2018-08-09T16:35:14.332Z,42.97
2018-08-09T16:37:44.622Z,42.36
2018-08-09T16:40:15.255Z,42.57
2018-08-09T16:42:44.327Z,42.55
2018-08-09T16:45:14.723Z,42.21
2018-08-09T16:47:43.489Z,43.04
2018-08-09T16:50:15.830Z,42.60
2018-08-09T16:52:44.907Z,41.87
2018-08-09T16:55:14.946Z,42.64
2018-08-09T16:57:43.659Z,42.89
2018-08-09T17:00:14.243Z,42.77
2018-08-09T17:02:43.036Z,43.00
2018-08-09T17:05:14.606Z,42.13
2018-08-09T17:07:43.522Z,42.36
2018-08-09T17:10:13.247Z,41.95
2018-08-09T17:12:42.288Z,42.88
2018-08-09T17:15:14.020Z,43.01
2018-08-09T17:17:42.770Z,43.40
2018-08-09T17:20:16.523Z,42.88
2018-08-09T17:22:45.878Z,43.42
2018-08-09T17:25:15.075Z,43.77
2018-08-09T17:27:45.085Z,43.53
2018-08-09T17:30:15.159Z,43.80
2018-08-09T17:32:43.950Z,43.87
2018-08-09T17:35:14.043Z,44.57
2018-08-09T17:37:42.799Z,44.22
2018-08-09T17:40:19.650Z,44.70
2018-08-09T17:42:49.463Z,44.86
2018-08-09T17:45:18.758Z,45.38
2018-08-09T17:47:47.473Z,45.87
2018-08-09T17:50:16.222Z,45.85
2018-08-09T17:52:44.843Z,46.03
2018-08-09T17:55:14.999Z,46.43
2018-08-09T17:57:44.462Z,47.08
2018-08-09T18:00:17.715Z,47.23
2018-08-09T18:02:46.267Z,47.77
2018-08-09T18:05:14.967Z,48.14
2018-08-09T18:07:44.222Z,48.38
2018-08-09T18:10:15.939Z,48.44
2018-08-09T18:12:45.588Z,49.52
2018-08-09T18:15:14.155Z,49.88
2018-08-09T18:17:42.837Z,49.61
2018-08-09T18:20:15.523Z,50.61
2018-08-09T18:22:44.836Z,50.20
2018-08-09T18:25:14.790Z,50.57
2018-08-09T18:27:43.536Z,51.49
2018-08-09T18:30:19.901Z,52.35
2018-08-09T18:32:49.052Z,52.26
2018-08-09T18:35:18.764Z,52.96
2018-08-09T18:37:47.596Z,52.98
2018-08-09T18:40:19.355Z,52.91
2018-08-09T18:42:48.038Z,53.10
2018-08-09T18:45:16.804Z,53.34
2018-08-09T18:47:45.615Z,54.01
2018-08-09T18:50:18.817Z,53.97
2018-08-09T18:52:47.578Z,54.31
2018-08-09T18:55:17.325Z,54.62
2018-08-09T18:57:45.883Z,54.59
2018-08-09T19:00:17.871Z,54.96
2018-08-09T19:02:46.994Z,54.88
2018-08-09T19:05:16.548Z,55.09
2018-08-09T19:07:45.291Z,54.96
2018-08-09T19:10:16.496Z,55.18
2018-08-09T19:12:45.266Z,54.97
2018-08-09T19:15:14.307Z,55.39
2018-08-09T19:17:43.324Z,55.97
2018-08-09T19:20:21.130Z,55.64
2018-08-09T19:22:49.846Z,56.25
2018-08-09T19:25:18.522Z,56.02
2018-08-09T19:27:47.211Z,55.95
2018-08-09T19:30:17.211Z,55.83
2018-08-09T19:32:45.842Z,56.21
2018-08-09T19:35:15.825Z,56.69
2018-08-09T19:37:44.510Z,56.04
2018-08-09T19:40:14.855Z,56.96
2018-08-09T19:42:43.596Z,57.09
2018-08-09T19:45:14.402Z,57.10
2018-08-09T19:47:43.141Z,57.24
2018-08-09T19:50:14.223Z,58.21
2018-08-09T19:52:42.888Z,58.23
2018-08-09T19:55:13.197Z,58.32
2018-08-09T19:57:43.309Z,58.49
2018-08-09T20:00:16.100Z,59.00
2018-08-09T20:02:46.063Z,59.30
2018-08-09T20:05:14.692Z,59.50
2018-08-09T20:07:43.699Z,59.27
2018-08-09T20:10:13.342Z,59.25
2018-08-09T20:12:42.987Z,59.66
2018-08-09T20:15:14.278Z,59.87
2018-08-09T20:17:42.930Z,59.25
2018-08-09T20:20:13.276Z,59.89
2018-08-09T20:22:42.478Z,59.62
2018-08-09T20:25:12.129Z,59.88
2018-08-09T20:27:41.461Z,59.79
2018-08-09T20:30:11.830Z,59.94
2018-08-09T20:32:41.043Z,59.54
2018-08-09T20:35:12.398Z,59.16
2018-08-09T20:37:41.911Z,59.61
2018-08-09T20:40:11.401Z,59.27
2018-08-09T20:42:40.534Z,59.25
2018-08-09T20:45:11.026Z,59.26
2018-08-09T20:47:39.695Z,59.52
2018-08-09T20:50:10.643Z,58.88
2018-08-09T20:52:39.893Z,58.58
2018-08-09T20:55:09.058Z,58.52
2018-08-09T20:57:38.278Z,58.78
2018-08-09T21:00:10.154Z,58.75
2018-08-09T21:02:39.392Z,57.87
2018-08-09T21:05:08.791Z,57.94
2018-08-09T21:07:37.410Z,57.57
2018-08-09T21:10:06.607Z,57.63
2018-08-09T21:12:35.819Z,58.25
2018-08-09T21:15:05.081Z,58.12
2018-08-09T21:17:33.790Z,58.35
2018-08-09T21:20:02.543Z,58.41
2018-08-09T21:22:31.101Z,58.38
2018-08-09T21:24:59.757Z,57.92
2018-08-09T21:27:28.518Z,58.31
2018-08-09T21:29:57.376Z,57.84
2018-08-09T21:32:26.018Z,57.74
2018-08-09T21:34:54.806Z,57.90
2018-08-09T21:37:23.436Z,58.78
2018-08-09T21:39:51.955Z,58.90
2018-08-09T21:42:20.556Z,58.80
2018-08-09T21:44:49.118Z,58.03
2018-08-09T21:47:17.866Z,58.29
2018-08-09T21:50:25.730Z,57.95
2018-08-09T21:52:54.350Z,58.29
2018-08-09T21:55:22.996Z,58.45
2018-08-09T21:57:51.678Z,58.25
2018-08-09T22:00:59.128Z,58.77
2018-08-09T22:03:30.120Z,58.37
2018-08-09T22:06:04.226Z,58.28
2018-08-09T22:08:38.086Z,57.77
2018-08-09T22:11:12.454Z,57.60
2018-08-09T22:13:46.343Z,57.50
2018-08-09T22:16:20.265Z,57.41
2018-08-09T22:18:54.014Z,57.32
2018-08-09T22:21:27.742Z,57.92
2018-08-09T22:23:56.388Z,57.75
2018-08-09T22:26:25.325Z,57.66
2018-08-09T22:28:54.838Z,57.26
2018-08-09T22:31:23.438Z,57.27
2018-08-09T22:33:52.098Z,56.62
2018-08-09T22:36:20.648Z,56.84
2018-08-09T22:38:49.394Z,56.85
2018-08-09T22:41:17.974Z,56.34
2018-08-09T22:43:47.322Z,56.08
2018-08-09T22:46:16.075Z,56.23
2018-08-09T22:48:44.850Z,55.75
2018-08-09T22:51:13.374Z,55.19
2018-08-09T22:53:42.114Z,55.46
2018-08-09T22:56:10.765Z,54.69
2018-08-09T22:58:39.367Z,55.14
2018-08-09T23:01:08.699Z,55.68
2018-08-09T23:03:37.410Z,56.90
2018-08-09T23:06:06.355Z,57.90
2018-08-09T23:08:34.946Z,59.72
2018-08-09T23:11:03.628Z,60.97
2018-08-09T23:13:32.590Z,62.17
2018-08-09T23:16:01.248Z,62.06
2018-08-09T23:18:30.730Z,63.58
2018-08-09T23:21:00.419Z,62.50
2018-08-09T23:23:29.183Z,63.04
2018-08-09T23:25:57.856Z,64.17
2018-08-09T23:28:26.538Z,64.77
2018-08-09T23:30:55.130Z,65.32
2018-08-09T23:33:25.249Z,65.92
2018-08-09T23:35:53.895Z,67.83
2018-08-09T23:38:22.625Z,69.01
2018-08-09T23:40:51.210Z,70.78
2018-08-09T23:43:19.817Z,71.37
2018-08-09T23:45:48.500Z,71.29
2018-08-09T23:48:17.118Z,73.08
2018-08-09T23:50:45.768Z,72.93
2018-08-09T23:53:14.542Z,72.59
2018-08-09T23:55:43.108Z,72.75
2018-08-09T23:58:11.725Z,72.73
